Time;durP1;ratioP1;P1;durP2;ratioP2;P2;SDS_P1;SDS_P2;PMS_P1;PMS_P2;Temp;Humidity;BMP_temperature;BMP_pressure;BME280_temperature;BME280_humidity;BME280_pressure;Samples;Min_cycle;Max_cycle;Signal;HPM_P1;HPM_P2
2023/10/07 00:02:47;;;;;;;6.82;3.40;;;13.30;99.90;;;;;;7303309;32;20243;-56
2023/10/07 00:06:49;;;;;;;7.10;3.05;;;13.40;99.90;;;;;;7298892;32;20394;-56
2023/10/07 00:10:51;;;;;;;7.07;3.42;;;13.40;99.90;;;;;;7303279;32;20193;-57
2023/10/07 00:14:52;;;;;;;8.98;3.15;;;13.40;99.90;;;;;;7296874;32;20490;-57
2023/10/07 00:18:54;;;;;;;9.13;3.28;;;13.40;99.90;;;;;;7300070;32;20534;-56
2023/10/07 00:23:00;;;;;;;11.25;3.12;;;13.50;99.90;;;;;;7300797;32;20113;-56
2023/10/07 00:27:05;;;;;;;9.90;3.12;;;13.40;99.90;;;;;;7299372;32;20112;-57
2023/10/07 00:31:22;;;;;;;7.53;3.60;;;13.30;99.90;;;;;;7300297;32;20131;-56
2023/10/07 00:35:27;;;;;;;8.97;3.80;;;13.40;99.90;;;;;;7301377;32;20215;-56
2023/10/07 00:39:31;;;;;;;4.45;2.85;;;13.20;99.90;;;;;;7296830;32;20142;-57
2023/10/07 00:43:33;;;;;;;9.32;3.33;;;13.20;99.90;;;;;;7298678;32;20134;-56
2023/10/07 00:47:35;;;;;;;8.20;3.58;;;13.20;99.90;;;;;;7297942;32;20108;-57
2023/10/07 00:51:42;;;;;;;8.50;3.55;;;13.20;99.90;;;;;;7299472;32;20218;-56
2023/10/07 00:55:46;;;;;;;;;;;13.30;99.90;;;;;;7297139;32;20230;-57
2023/10/07 00:59:51;;;;;;;7.72;3.92;;;13.50;99.90;;;;;;7301065;32;20003;-57
2023/10/07 01:03:55;;;;;;;10.30;4.22;;;13.40;99.90;;;;;;7296467;32;20161;-57
2023/10/07 01:07:58;;;;;;;8.10;3.40;;;13.40;99.90;;;;;;7301942;32;20116;-57
2023/10/07 01:11:59;;;;;;;7.10;3.60;;;13.30;99.90;;;;;;7300896;32;20502;-57
2023/10/07 01:16:06;;;;;;;7.87;3.50;;;13.30;99.90;;;;;;7296944;32;20698;-56
2023/10/07 01:20:09;;;;;;;10.27;3.90;;;13.30;99.90;;;;;;7297672;32;20188;-56
2023/10/07 01:24:13;;;;;;;9.25;3.97;;;13.30;99.90;;;;;;7301732;32;20184;-56
2023/10/07 01:28:15;;;;;;;12.63;4.40;;;13.30;99.90;;;;;;7300275;32;20255;-56
2023/10/07 01:32:17;;;;;;;8.30;3.92;;;13.30;99.90;;;;;;7298157;32;20838;-56
2023/10/07 01:36:20;;;;;;;9.23;3.60;;;13.30;99.90;;;;;;7303113;32;20261;-58
2023/10/07 01:40:27;;;;;;;9.27;3.90;;;13.40;99.90;;;;;;7297368;32;20200;-57
2023/10/07 01:44:31;;;;;;;14.23;4.15;;;13.50;99.90;;;;;;7294456;32;20473;-55
2023/10/07 01:48:35;;;;;;;9.02;4.20;;;13.50;99.90;;;;;;7296663;32;20123;-54
2023/10/07 01:52:38;;;;;;;13.65;4.12;;;13.60;99.90;;;;;;7295884;32;20122;-55
2023/10/07 01:56:40;;;;;;;11.43;4.32;;;13.50;99.90;;;;;;7300011;32;20270;-56
2023/10/07 02:00:45;;;;;;;14.18;4.55;;;13.60;99.90;;;;;;7301875;32;20138;-56
2023/10/07 02:04:47;;;;;;;8.55;4.25;;;13.50;99.90;;;;;;7300295;32;20180;-56
2023/10/07 02:08:50;;;;;;;12.20;5.00;;;13.40;99.90;;;;;;7295628;32;20138;-55
2023/10/07 02:12:54;;;;;;;9.23;3.95;;;13.40;99.90;;;;;;7299847;32;20193;-58
2023/10/07 02:16:57;;;;;;;12.43;4.12;;;13.40;99.90;;;;;;7298035;32;20134;-58
2023/10/07 02:21:08;;;;;;;12.37;4.25;;;13.40;99.90;;;;;;7290296;32;20131;-57
2023/10/07 02:25:10;;;;;;;11.23;4.55;;;13.40;99.90;;;;;;7300609;32;20150;-56
2023/10/07 02:29:13;;;;;;;12.00;4.60;;;13.50;99.90;;;;;;7298924;32;20116;-56
2023/10/07 02:33:15;;;;;;;12.23;4.37;;;13.50;99.90;;;;;;7299730;32;20225;-56
2023/10/07 02:37:20;;;;;;;12.70;4.75;;;13.50;99.90;;;;;;7299781;32;20183;-56
2023/10/07 02:41:24;;;;;;;10.13;4.22;;;13.60;99.90;;;;;;7294500;32;20410;-56
2023/10/07 02:45:29;;;;;;;9.70;4.15;;;13.60;99.90;;;;;;7297861;32;20190;-56
2023/10/07 02:49:31;;;;;;;11.63;4.53;;;13.60;99.90;;;;;;7299605;32;20142;-55
2023/10/07 02:53:35;;;;;;;10.00;4.72;;;13.70;99.90;;;;;;7295489;32;20130;-55
2023/10/07 02:57:39;;;;;;;13.88;6.37;;;13.70;99.90;;;;;;7297451;32;20160;-57
2023/10/07 03:01:58;;;;;;;11.75;5.00;;;13.80;99.90;;;;;;7301787;32;20120;-58
2023/10/07 03:06:00;;;;;;;11.15;5.47;;;13.80;99.90;;;;;;7298082;32;20217;-57
2023/10/07 03:10:05;;;;;;;9.43;5.10;;;13.80;99.90;;;;;;7300379;32;20512;-57
2023/10/07 03:14:12;;;;;;;12.35;5.35;;;13.80;99.90;;;;;;7292421;32;20168;-57
2023/10/07 03:18:30;;;;;;;10.15;5.03;;;13.80;99.90;;;;;;7296448;32;20467;-57
2023/10/07 03:22:42;;;;;;;13.13;5.53;;;13.70;99.90;;;;;;7295971;32;20177;-57
2023/10/07 03:26:46;;;;;;;12.60;5.35;;;13.70;99.90;;;;;;7296473;32;20469;-57
2023/10/07 03:30:51;;;;;;;13.57;6.55;;;13.70;99.90;;;;;;7295951;32;20169;-56
2023/10/07 03:34:53;;;;;;;10.57;5.45;;;13.80;99.90;;;;;;7297525;32;20104;-56
2023/10/07 03:39:00;;;;;;;11.50;5.65;;;13.80;99.90;;;;;;7296473;32;20127;-57
2023/10/07 03:43:01;;;;;;;13.98;6.03;;;13.80;99.90;;;;;;7294675;32;20112;-57
2023/10/07 03:47:03;;;;;;;13.82;5.55;;;13.80;99.90;;;;;;7304232;32;20486;-56
2023/10/07 03:51:06;;;;;;;14.02;6.32;;;13.80;99.90;;;;;;7299848;32;20754;-56
2023/10/07 03:55:08;;;;;;;14.80;6.50;;;13.90;99.90;;;;;;7299467;32;20119;-56
2023/10/07 03:59:14;;;;;;;16.52;6.18;;;13.90;99.90;;;;;;7304718;32;20216;-57
2023/10/07 04:03:16;;;;;;;13.10;6.35;;;13.90;99.90;;;;;;7291648;32;20281;-56
2023/10/07 04:07:18;;;;;;;11.68;6.25;;;13.90;99.90;;;;;;7299677;32;20195;-57
2023/10/07 04:11:25;;;;;;;14.63;7.05;;;14.00;99.90;;;;;;7304703;32;20556;-56
2023/10/07 04:15:34;;;;;;;;;;;14.00;99.90;;;;;;7300257;32;20592;-56
2023/10/07 04:19:40;;;;;;;16.27;7.80;;;14.00;99.90;;;;;;7302016;32;20067;-56
2023/10/07 04:23:45;;;;;;;17.67;8.07;;;14.10;99.90;;;;;;7302858;32;20251;-57
2023/10/07 04:27:47;;;;;;;17.65;9.18;;;14.00;99.90;;;;;;7298983;32;20538;-57
2023/10/07 04:31:57;;;;;;;19.55;9.50;;;14.10;99.90;;;;;;7301266;32;20108;-56
2023/10/07 04:36:04;;;;;;;14.75;8.40;;;14.20;99.90;;;;;;7302915;32;20149;-56
2023/10/07 04:45:00;;;;;;;13.43;7.57;;;14.20;99.90;;;;;;7298958;32;20798;-57
2023/10/07 04:48:54;;;;;;;16.25;8.02;;;14.10;99.90;;;;;;7301933;32;20175;-57
2023/10/07 04:53:02;;;;;;;15.77;7.30;;;14.20;99.90;;;;;;7294328;32;20242;-56
2023/10/07 04:57:09;;;;;;;16.90;7.50;;;14.20;99.90;;;;;;7293991;32;20637;-58
2023/10/07 05:05:35;;;;;;;10.20;6.68;;;14.10;99.90;;;;;;7300785;32;20153;-56
2023/10/07 05:09:38;;;;;;;15.57;7.00;;;14.20;99.90;;;;;;7295836;32;20133;-55
2023/10/07 05:13:44;;;;;;;12.65;6.47;;;14.20;99.90;;;;;;7295017;32;20818;-57
2023/10/07 05:17:46;;;;;;;14.70;6.35;;;14.20;99.90;;;;;;7292557;32;20100;-55
2023/10/07 05:22:36;;;;;;;11.40;6.50;;;14.30;99.90;;;;;;7293971;32;20145;-56
2023/10/07 05:26:17;;;;;;;15.70;5.97;;;14.30;99.90;;;;;;7289523;32;21043;-56
2023/10/07 05:30:19;;;;;;;14.20;5.57;;;14.30;99.90;;;;;;7294304;32;20514;-55
2023/10/07 05:34:20;;;;;;;16.05;6.05;;;14.20;99.90;;;;;;7291134;32;20625;-56
2023/10/07 05:38:22;;;;;;;8.63;5.68;;;14.30;99.90;;;;;;7294995;32;20177;-57
2023/10/07 05:42:25;;;;;;;8.88;5.97;;;14.30;99.90;;;;;;7295152;32;20176;-56
2023/10/07 05:46:27;;;;;;;14.13;5.43;;;14.40;99.90;;;;;;7293961;32;20136;-56
2023/10/07 05:50:32;;;;;;;15.57;5.60;;;14.40;99.90;;;;;;7289554;32;20158;-56
2023/10/07 05:54:34;;;;;;;15.98;6.43;;;14.30;99.90;;;;;;7295529;32;20170;-55
2023/10/07 05:58:38;;;;;;;11.95;5.32;;;14.40;99.90;;;;;;7295418;32;20171;-57
2023/10/07 06:02:40;;;;;;;13.02;5.40;;;14.40;99.90;;;;;;7295543;32;20555;-55
2023/10/07 06:06:42;;;;;;;12.37;5.60;;;14.40;99.90;;;;;;7293521;32;20120;-57
2023/10/07 06:10:52;;;;;;;13.35;6.25;;;14.30;99.90;;;;;;7294356;32;20301;-56
2023/10/07 06:14:54;;;;;;;11.40;6.05;;;14.50;99.90;;;;;;7292526;32;20226;-55
2023/10/07 06:18:56;;;;;;;14.15;6.87;;;14.50;99.90;;;;;;7295966;32;20108;-55
2023/10/07 06:22:58;;;;;;;12.63;5.75;;;14.50;99.90;;;;;;7295577;32;20552;-57
2023/10/07 06:27:00;;;;;;;14.57;6.72;;;14.50;99.90;;;;;;7292603;32;20107;-56
2023/10/07 06:31:13;;;;;;;12.65;6.50;;;14.50;99.90;;;;;;7295659;32;20225;-56
2023/10/07 06:35:21;;;;;;;13.05;5.95;;;14.60;99.90;;;;;;7293630;32;20104;-57
2023/10/07 06:39:27;;;;;;;13.05;6.20;;;14.60;99.90;;;;;;7293436;32;20127;-57
2023/10/07 06:43:29;;;;;;;12.00;5.60;;;14.70;99.90;;;;;;7298311;32;20153;-59
2023/10/07 06:47:32;;;;;;;15.02;6.50;;;14.60;99.90;;;;;;7299026;32;20255;-58
2023/10/07 06:51:36;;;;;;;10.27;5.50;;;14.70;99.90;;;;;;7294694;32;20233;-57
2023/10/07 06:55:43;;;;;;;11.32;5.55;;;14.80;99.90;;;;;;7290400;32;20116;-59
2023/10/07 06:59:45;;;;;;;11.88;5.97;;;14.80;99.90;;;;;;7298191;32;20112;-57
2023/10/07 07:03:47;;;;;;;12.65;6.55;;;14.80;99.90;;;;;;7294844;32;20222;-58
2023/10/07 07:07:52;;;;;;;14.52;6.28;;;14.90;99.90;;;;;;7295809;32;20497;-57
2023/10/07 07:11:57;;;;;;;11.35;5.10;;;14.90;99.90;;;;;;7292056;32;20129;-56
2023/10/07 07:16:07;;;;;;;13.65;6.30;;;15.10;99.90;;;;;;7292758;32;20273;-56
2023/10/07 07:24:14;;;;;;;9.65;4.82;;;15.40;99.90;;;;;;7300292;32;20514;-56
2023/10/07 07:28:17;;;;;;;9.43;4.80;;;15.50;99.90;;;;;;7300701;32;20179;-56
2023/10/07 07:32:19;;;;;;;14.07;5.82;;;15.40;99.90;;;;;;7292336;32;20212;-56
2023/10/07 07:40:41;;;;;;;10.03;5.03;;;15.50;99.90;;;;;;7302893;32;20126;-57
2023/10/07 07:44:57;;;;;;;14.27;5.10;;;15.50;99.90;;;;;;7308233;32;20123;-56
2023/10/07 07:49:08;;;;;;;14.02;4.62;;;15.60;99.90;;;;;;7297536;32;20172;-56
2023/10/07 07:53:12;;;;;;;7.68;4.18;;;15.60;99.90;;;;;;7300737;32;20273;-56
2023/10/07 07:57:16;;;;;;;10.85;4.25;;;15.60;99.90;;;;;;7297287;32;20181;-57
2023/10/07 08:01:21;;;;;;;11.15;4.22;;;15.60;99.90;;;;;;7297599;32;20128;-57
2023/10/07 08:05:25;;;;;;;10.13;4.50;;;15.70;99.90;;;;;;7298076;32;20104;-57
2023/10/07 08:09:28;;;;;;;9.02;4.15;;;15.70;99.90;;;;;;7303045;32;20112;-57
2023/10/07 08:13:29;;;;;;;8.25;3.67;;;15.80;99.90;;;;;;7302001;32;20128;-60
2023/10/07 08:17:31;;;;;;;7.53;4.12;;;15.90;99.90;;;;;;7300570;32;20195;-56
2023/10/07 08:21:35;;;;;;;9.15;3.92;;;15.90;99.90;;;;;;7295925;32;20124;-59
2023/10/07 08:25:37;;;;;;;12.00;4.47;;;15.90;99.90;;;;;;7290932;32;20181;-57
2023/10/07 08:29:40;;;;;;;11.90;4.05;;;15.90;99.90;;;;;;7293242;32;20124;-56
2023/10/07 08:33:42;;;;;;;9.15;4.53;;;16.00;99.90;;;;;;7289613;32;20742;-57
2023/10/07 08:37:49;;;;;;;9.90;4.30;;;16.00;99.90;;;;;;7295164;32;20619;-57
2023/10/07 08:41:52;;;;;;;;;;;16.10;99.90;;;;;;7299949;32;20493;-59
2023/10/07 08:46:01;;;;;;;10.02;4.07;;;16.10;99.90;;;;;;7298775;32;20018;-57
2023/10/07 08:50:06;;;;;;;12.25;4.03;;;16.10;99.90;;;;;;7292480;32;20142;-58
2023/10/07 08:54:17;;;;;;;11.75;4.35;;;16.30;99.90;;;;;;7297076;32;20254;-57
2023/10/07 08:58:25;;;;;;;9.40;3.80;;;16.50;99.90;;;;;;7293588;32;20279;-57
2023/10/07 09:02:30;;;;;;;12.93;4.00;;;16.60;99.90;;;;;;7289768;32;20275;-57
2023/10/07 09:06:33;;;;;;;8.68;3.67;;;16.80;99.90;;;;;;7295832;32;20647;-58
2023/10/07 09:10:36;;;;;;;7.97;4.03;;;17.00;99.90;;;;;;7288441;32;20128;-56
2023/10/07 09:14:46;;;;;;;7.43;3.87;;;17.20;99.90;;;;;;7299918;32;20120;-57
2023/10/07 09:18:55;;;;;;;8.35;3.62;;;17.30;99.90;;;;;;7300385;32;20218;-57
2023/10/07 09:23:14;;;;;;;7.78;3.58;;;17.40;99.90;;;;;;7296802;32;20108;-57
2023/10/07 09:27:36;;;;;;;8.05;3.70;;;17.70;99.90;;;;;;7295848;32;20487;-57
2023/10/07 09:31:39;;;;;;;8.70;3.58;;;18.00;99.90;;;;;;7289159;32;20108;-56
2023/10/07 09:35:44;;;;;;;6.20;3.20;;;18.50;99.90;;;;;;7297660;32;20191;-56
2023/10/07 09:39:53;;;;;;;9.85;3.10;;;19.50;99.90;;;;;;7296658;32;20535;-56
2023/10/07 09:43:56;;;;;;;6.90;2.90;;;20.50;99.90;;;;;;7293559;32;20691;-56
2023/10/07 09:48:00;;;;;;;8.90;3.33;;;21.10;99.90;;;;;;7293057;32;20261;-55
2023/10/07 09:52:17;;;;;;;8.32;3.20;;;21.70;99.90;;;;;;7293850;32;20229;-56
2023/10/07 09:56:49;;;;;;;7.00;3.17;;;21.60;99.90;;;;;;7298919;32;20479;-58
2023/10/07 10:01:05;;;;;;;11.32;3.25;;;21.30;99.90;;;;;;7297278;32;20181;-56
2023/10/07 10:05:26;;;;;;;7.45;3.22;;;21.20;99.90;;;;;;7301319;32;20187;-60
2023/10/07 10:09:42;;;;;;;7.97;2.62;;;20.90;99.90;;;;;;7293211;32;20239;-56
2023/10/07 10:17:55;;;;;;;8.20;3.22;;;20.90;99.90;;;;;;7289353;32;20222;-56
2023/10/07 10:22:09;;;;;;;7.75;2.65;;;20.50;99.90;;;;;;7291150;32;20585;-58
2023/10/07 10:26:15;;;;;;;6.53;3.10;;;20.10;99.90;;;;;;7299977;32;20143;-56
2023/10/07 10:30:22;;;;;;;9.23;2.93;;;19.90;99.90;;;;;;7297181;32;20263;-58
2023/10/07 10:34:26;;;;;;;5.75;2.35;;;19.70;99.90;;;;;;7296078;32;20393;-58
2023/10/07 10:38:37;;;;;;;8.00;2.95;;;19.40;99.90;;;;;;7296857;32;20502;-57
2023/10/07 10:42:43;;;;;;;9.23;2.67;;;19.30;99.90;;;;;;7299763;32;20492;-57
2023/10/07 10:46:47;;;;;;;8.30;3.60;;;19.40;99.90;;;;;;7292061;32;20525;-59
2023/10/07 10:50:49;;;;;;;5.68;3.05;;;19.40;99.90;;;;;;7294745;32;20103;-56
2023/10/07 10:54:52;;;;;;;7.30;2.97;;;19.40;99.90;;;;;;7300129;32;20207;-58
2023/10/07 10:58:54;;;;;;;9.77;3.17;;;19.60;99.90;;;;;;7298076;32;20126;-57
2023/10/07 11:02:56;;;;;;;5.65;2.45;;;19.60;99.90;;;;;;7297001;32;21933;-57
2023/10/07 11:06:59;;;;;;;7.45;2.83;;;19.60;99.90;;;;;;7298628;32;20111;-59
2023/10/07 11:11:02;;;;;;;9.23;3.15;;;19.70;99.90;;;;;;7295792;32;20169;-57
2023/10/07 11:15:12;;;;;;;6.22;2.62;;;19.70;99.90;;;;;;7296164;32;20344;-57
2023/10/07 11:19:19;;;;;;;5.75;2.45;;;19.70;99.90;;;;;;7291644;32;20311;-55
2023/10/07 11:23:21;;;;;;;6.28;2.53;;;19.70;99.90;;;;;;7295608;32;20178;-57
2023/10/07 11:27:26;;;;;;;7.37;2.50;;;19.90;99.90;;;;;;7296355;32;20259;-58
2023/10/07 11:31:30;;;;;;;6.80;2.40;;;20.10;99.90;;;;;;7295728;32;20440;-56
2023/10/07 11:35:32;;;;;;;3.70;2.05;;;20.30;99.90;;;;;;7289923;32;20112;-56
2023/10/07 11:39:38;;;;;;;6.18;2.22;;;20.50;99.90;;;;;;7299016;32;20176;-57
2023/10/07 11:43:44;;;;;;;7.07;2.33;;;20.40;99.90;;;;;;7298826;32;20135;-56
2023/10/07 11:47:46;;;;;;;7.25;2.45;;;20.40;99.90;;;;;;7295557;32;20695;-55
2023/10/07 11:51:48;;;;;;;4.78;2.30;;;20.50;99.90;;;;;;7296996;32;20122;-58
2023/10/07 11:55:50;;;;;;;6.07;2.30;;;20.60;99.90;;;;;;7296227;32;20111;-59
2023/10/07 11:59:52;;;;;;;7.35;2.60;;;20.70;99.90;;;;;;7290614;32;20143;-57
2023/10/07 12:03:54;;;;;;;6.22;2.80;;;20.70;99.90;;;;;;7297440;32;20135;-56
2023/10/07 12:08:00;;;;;;;8.55;2.67;;;20.70;99.90;;;;;;7302929;32;20131;-58
2023/10/07 12:12:08;;;;;;;5.10;2.50;;;20.70;99.90;;;;;;7300615;32;20138;-57
2023/10/07 12:16:10;;;;;;;7.85;2.72;;;20.90;99.90;;;;;;7311118;32;20120;-57
2023/10/07 12:20:13;;;;;;;6.20;2.37;;;21.00;99.90;;;;;;7299035;32;20187;-59
2023/10/07 12:24:18;;;;;;;6.68;2.62;;;21.00;99.90;;;;;;7295806;32;20115;-57
2023/10/07 12:28:20;;;;;;;5.45;2.50;;;20.90;99.90;;;;;;7302104;32;20115;-59
2023/10/07 12:32:22;;;;;;;7.00;2.60;;;20.90;99.90;;;;;;7301390;32;20312;-58
2023/10/07 12:36:26;;;;;;;8.65;2.58;;;20.90;99.90;;;;;;7301869;32;20128;-58
2023/10/07 12:40:28;;;;;;;8.07;2.55;;;21.00;99.90;;;;;;7302596;32;20214;-58
2023/10/07 12:44:30;;;;;;;7.40;2.90;;;21.20;99.90;;;;;;7293066;32;20749;-59
2023/10/07 12:48:32;;;;;;;7.22;2.47;;;21.10;99.90;;;;;;7294327;32;24628;-60
2023/10/07 12:52:35;;;;;;;6.87;3.10;;;21.10;99.90;;;;;;7298927;32;20447;-57
2023/10/07 12:56:38;;;;;;;6.53;2.67;;;21.10;99.90;;;;;;7301126;32;20172;-59
2023/10/07 13:00:41;;;;;;;7.12;2.90;;;20.90;99.90;;;;;;7295980;32;20526;-58
2023/10/07 13:04:44;;;;;;;4.30;2.03;;;21.00;99.90;;;;;;7300043;32;20127;-57
2023/10/07 13:08:47;;;;;;;7.78;2.58;;;21.00;99.90;;;;;;7299671;32;20100;-59
2023/10/07 13:12:50;;;;;;;12.98;2.83;;;21.10;99.90;;;;;;7301965;32;20119;-58
2023/10/07 13:16:56;;;;;;;8.10;3.08;;;21.10;99.90;;;;;;7302993;32;20446;-58
2023/10/07 13:20:59;;;;;;;;;;;21.20;99.90;;;;;;7299786;32;20147;-57
2023/10/07 13:25:00;;;;;;;7.72;2.75;;;21.30;99.90;;;;;;7304590;32;20354;-59
2023/10/07 13:29:09;;;;;;;6.80;2.67;;;21.30;99.90;;;;;;7299817;32;20259;-58
2023/10/07 13:33:13;;;;;;;5.93;2.40;;;21.30;99.90;;;;;;7298918;32;20559;-59
2023/10/07 13:37:17;;;;;;;9.35;2.53;;;21.30;99.90;;;;;;7296610;32;20104;-59
2023/10/07 13:41:20;;;;;;;4.68;2.25;;;21.10;99.90;;;;;;7295590;32;20720;-61
2023/10/07 13:45:24;;;;;;;10.13;3.00;;;21.10;99.90;;;;;;7308167;32;20221;-59
2023/10/07 13:49:27;;;;;;;8.82;2.53;;;21.10;99.90;;;;;;7294924;32;20108;-58
2023/10/07 13:53:51;;;;;;;7.07;2.70;;;21.10;99.90;;;;;;7298413;32;20300;-58
2023/10/07 13:57:55;;;;;;;6.28;2.65;;;21.20;99.90;;;;;;7293720;32;20092;-57
2023/10/07 14:01:58;;;;;;;6.50;3.08;;;21.20;99.90;;;;;;7300250;32;20218;-59
2023/10/07 14:06:06;;;;;;;6.37;2.55;;;21.20;99.90;;;;;;7294283;32;20192;-58
2023/10/07 14:10:09;;;;;;;6.12;2.85;;;21.10;99.90;;;;;;7295135;32;20179;-57
2023/10/07 14:14:13;;;;;;;8.35;2.75;;;21.10;99.90;;;;;;7295615;32;20110;-59
2023/10/07 14:18:19;;;;;;;6.03;2.78;;;21.00;99.90;;;;;;7298589;32;20134;-58
2023/10/07 14:22:21;;;;;;;;;;;21.10;99.90;;;;;;7302932;32;20128;-59
2023/10/07 14:26:24;;;;;;;5.35;2.50;;;21.20;99.90;;;;;;7288852;32;20324;-59
2023/10/07 14:30:28;;;;;;;8.23;3.80;;;21.20;99.90;;;;;;7296904;32;20475;-58
2023/10/07 14:34:31;;;;;;;7.22;2.90;;;21.30;99.90;;;;;;7298989;32;20122;-58
2023/10/07 14:38:34;;;;;;;5.30;2.67;;;21.20;99.90;;;;;;7287966;32;20539;-58
2023/10/07 14:42:36;;;;;;;8.15;2.97;;;21.10;99.90;;;;;;7293654;32;20561;-57
2023/10/07 14:46:41;;;;;;;6.47;3.05;;;21.00;99.90;;;;;;7292447;32;20096;-56
2023/10/07 14:50:43;;;;;;;8.15;2.85;;;20.90;99.90;;;;;;7293969;32;20204;-56
2023/10/07 14:54:45;;;;;;;7.55;3.28;;;20.90;99.90;;;;;;7293544;32;20258;-57
2023/10/07 14:58:49;;;;;;;5.32;2.67;;;20.90;99.90;;;;;;7292733;32;20820;-57
2023/10/07 15:02:51;;;;;;;6.82;2.90;;;20.80;99.90;;;;;;7291383;32;20233;-58
2023/10/07 15:06:53;;;;;;;5.85;2.53;;;20.70;99.90;;;;;;7292997;32;20490;-58
2023/10/07 15:10:54;;;;;;;7.62;3.22;;;20.70;99.90;;;;;;7291862;32;20254;-57
2023/10/07 15:14:56;;;;;;;6.47;2.97;;;20.70;99.90;;;;;;7290349;32;20103;-57
2023/10/07 15:19:00;;;;;;;6.57;2.90;;;20.70;99.90;;;;;;7291908;32;20104;-58
2023/10/07 15:23:03;;;;;;;6.10;2.50;;;20.80;99.90;;;;;;7295173;32;20107;-59
2023/10/07 15:27:05;;;;;;;6.28;3.05;;;20.90;99.90;;;;;;7289420;32;20172;-57
2023/10/07 15:31:07;;;;;;;7.37;2.70;;;20.80;99.90;;;;;;7295735;32;20569;-57
2023/10/07 15:35:11;;;;;;;8.07;3.33;;;20.70;99.90;;;;;;7290290;32;20205;-62
2023/10/07 15:39:15;;;;;;;5.28;2.95;;;20.70;99.90;;;;;;7290802;32;20240;-58
2023/10/07 15:43:17;;;;;;;5.78;2.85;;;20.70;99.90;;;;;;7293616;32;20230;-59
2023/10/07 15:47:19;;;;;;;7.30;2.92;;;20.60;99.90;;;;;;7298290;32;20123;-58
2023/10/07 15:51:21;;;;;;;9.45;3.37;;;20.70;99.90;;;;;;7294499;32;20197;-58
2023/10/07 15:55:23;;;;;;;7.68;3.10;;;20.70;99.90;;;;;;7301838;32;20310;-60
2023/10/07 15:59:25;;;;;;;9.80;3.65;;;20.50;99.90;;;;;;7305885;32;20103;-58
2023/10/07 16:03:32;;;;;;;8.90;3.70;;;20.60;99.90;;;;;;7304163;32;20096;-58
2023/10/07 16:07:38;;;;;;;11.02;3.03;;;20.50;99.90;;;;;;7299035;32;20210;-57
2023/10/07 16:11:49;;;;;;;6.65;3.22;;;20.40;99.90;;;;;;7299550;32;20100;-58
2023/10/07 16:15:52;;;;;;;7.03;3.30;;;20.30;99.90;;;;;;7306649;32;20182;-57
2023/10/07 16:20:00;;;;;;;6.35;3.17;;;20.20;99.90;;;;;;7301741;32;20112;-58
2023/10/07 16:24:02;;;;;;;9.93;3.47;;;20.00;99.90;;;;;;7299683;32;20088;-59
2023/10/07 16:28:05;;;;;;;7.22;3.42;;;19.90;99.90;;;;;;7302060;32;20104;-61
2023/10/07 16:32:06;;;;;;;6.18;3.28;;;19.80;99.90;;;;;;7301810;32;20187;-59
2023/10/07 16:36:09;;;;;;;6.47;3.12;;;19.80;99.90;;;;;;7296508;32;20222;-60
2023/10/07 16:40:16;;;;;;;7.22;3.35;;;19.70;99.90;;;;;;7299891;32;20169;-59
2023/10/07 16:44:17;;;;;;;9.93;3.70;;;19.50;99.90;;;;;;7295399;32;20116;-58
2023/10/07 16:48:19;;;;;;;7.95;3.78;;;19.50;99.90;;;;;;7290518;32;20811;-58
2023/10/07 16:52:21;;;;;;;7.50;3.30;;;19.40;99.90;;;;;;7309994;32;20364;-58
2023/10/07 16:56:23;;;;;;;8.13;3.50;;;19.50;99.90;;;;;;7302438;32;20119;-59
2023/10/07 17:00:25;;;;;;;7.18;3.97;;;19.40;99.90;;;;;;7303493;32;20245;-58
2023/10/07 17:04:27;;;;;;;8.88;4.15;;;19.30;99.90;;;;;;7290820;32;20117;-58
2023/10/07 17:08:29;;;;;;;9.95;4.15;;;19.30;99.90;;;;;;7295975;32;20520;-58
2023/10/07 17:12:31;;;;;;;10.27;3.95;;;19.30;99.90;;;;;;7297621;32;20175;-58
2023/10/07 17:16:32;;;;;;;7.90;4.25;;;19.10;99.90;;;;;;7295734;32;20435;-59
2023/10/07 17:20:39;;;;;;;9.95;4.00;;;18.90;99.90;;;;;;7291768;32;20408;-57
2023/10/07 17:24:42;;;;;;;8.25;4.25;;;18.90;99.90;;;;;;7294180;32;20231;-57
2023/10/07 17:28:43;;;;;;;7.43;4.22;;;18.80;99.90;;;;;;7294976;32;20431;-57
2023/10/07 17:32:46;;;;;;;10.60;3.83;;;18.60;99.90;;;;;;7299609;32;20104;-58
2023/10/07 17:36:49;;;;;;;7.80;4.15;;;18.60;99.90;;;;;;7294180;32;20107;-56
2023/10/07 17:40:51;;;;;;;7.62;3.62;;;18.60;99.90;;;;;;7297481;32;20207;-57
2023/10/07 17:44:53;;;;;;;10.05;4.43;;;18.50;99.90;;;;;;7298161;32;20281;-58
2023/10/07 17:48:55;;;;;;;7.85;4.05;;;18.60;99.90;;;;;;7294925;32;20708;-57
2023/10/07 17:52:58;;;;;;;7.62;3.97;;;18.50;99.90;;;;;;7294799;32;20104;-57
2023/10/07 17:57:00;;;;;;;8.13;3.90;;;18.60;99.90;;;;;;7294049;32;20116;-58
2023/10/07 18:01:01;;;;;;;10.70;4.15;;;18.60;99.90;;;;;;7294318;32;20113;-57
2023/10/07 18:05:07;;;;;;;8.85;3.95;;;18.50;99.90;;;;;;7296262;32;21936;-58
2023/10/07 18:09:10;;;;;;;9.68;3.95;;;18.40;99.90;;;;;;7294107;32;20207;-57
2023/10/07 18:13:13;;;;;;;5.05;3.47;;;18.40;99.90;;;;;;7284828;32;20195;-58
2023/10/07 18:17:15;;;;;;;7.80;3.83;;;18.30;99.90;;;;;;7288027;32;20116;-57
2023/10/07 18:21:17;;;;;;;7.90;3.65;;;18.30;99.90;;;;;;7296328;32;20110;-57
2023/10/07 18:25:23;;;;;;;6.72;3.15;;;18.30;99.90;;;;;;7291691;32;20321;-57
2023/10/07 18:29:25;;;;;;;6.87;3.50;;;18.40;99.90;;;;;;7294996;32;20210;-57
2023/10/07 18:33:28;;;;;;;7.15;3.37;;;18.30;99.90;;;;;;7288391;32;20566;-56
2023/10/07 18:37:32;;;;;;;6.93;3.60;;;18.40;99.90;;;;;;7290199;32;20108;-57
2023/10/07 18:41:34;;;;;;;7.20;3.65;;;18.40;99.90;;;;;;7293902;32;20095;-56
2023/10/07 18:45:36;;;;;;;6.45;3.75;;;18.30;99.90;;;;;;7294185;32;20525;-55
2023/10/07 18:49:41;;;;;;;6.10;3.40;;;18.30;99.90;;;;;;7298597;32;20529;-56
2023/10/07 18:53:43;;;;;;;8.00;3.92;;;18.30;99.90;;;;;;7293194;32;20478;-56
2023/10/07 18:57:45;;;;;;;8.75;3.80;;;18.20;99.90;;;;;;7292593;32;20112;-55
2023/10/07 19:01:49;;;;;;;7.80;5.60;;;18.20;99.90;;;;;;7294354;32;20228;-56
2023/10/07 19:05:51;;;;;;;6.03;3.50;;;18.20;99.90;;;;;;7293791;32;20207;-56
2023/10/07 19:09:58;;;;;;;7.37;3.80;;;18.10;99.90;;;;;;7295664;32;20254;-56
2023/10/07 19:13:59;;;;;;;7.32;4.12;;;18.20;99.90;;;;;;7293084;32;20199;-57
2023/10/07 19:18:01;;;;;;;8.05;3.62;;;18.10;99.90;;;;;;7300479;32;20577;-56
2023/10/07 19:22:03;;;;;;;11.95;5.57;;;18.10;99.90;;;;;;7301406;32;20176;-57
2023/10/07 19:26:10;;;;;;;8.48;3.67;;;18.00;99.90;;;;;;7302133;32;20221;-57
2023/10/07 19:30:18;;;;;;;9.55;3.75;;;18.00;99.90;;;;;;7296298;32;20658;-56
2023/10/07 19:34:20;;;;;;;8.27;3.83;;;17.90;99.90;;;;;;7298766;32;20545;-57
2023/10/07 19:38:21;;;;;;;8.88;3.00;;;17.80;99.90;;;;;;7298577;32;20155;-58
2023/10/07 19:42:23;;;;;;;5.87;3.75;;;17.90;99.90;;;;;;7293619;32;20150;-57
2023/10/07 19:46:25;;;;;;;7.25;3.12;;;17.80;99.90;;;;;;7301413;32;20363;-55
2023/10/07 19:50:27;;;;;;;7.35;3.67;;;17.90;99.90;;;;;;7299631;32;20206;-56
2023/10/07 19:54:29;;;;;;;7.37;3.47;;;17.80;99.90;;;;;;7285246;32;20126;-56
2023/10/07 19:58:30;;;;;;;5.85;3.25;;;17.90;99.90;;;;;;7300218;32;20127;-56
2023/10/07 20:02:32;;;;;;;6.90;3.70;;;18.00;99.90;;;;;;7292976;32;20104;-56
2023/10/07 20:06:35;;;;;;;7.95;3.00;;;18.00;99.90;;;;;;7299439;32;20108;-56
2023/10/07 20:10:37;;;;;;;9.07;4.00;;;18.00;99.90;;;;;;7299712;32;20141;-56
2023/10/07 20:14:40;;;;;;;7.68;4.10;;;18.00;99.90;;;;;;7299592;32;20108;-56
2023/10/07 20:18:42;;;;;;;9.70;3.80;;;17.90;99.90;;;;;;7299862;32;20250;-57
2023/10/07 20:22:43;;;;;;;7.82;3.55;;;17.90;99.90;;;;;;7292393;32;20154;-56
2023/10/07 20:26:45;;;;;;;11.38;3.55;;;17.90;99.90;;;;;;7297157;32;20725;-55
2023/10/07 20:30:47;;;;;;;8.55;3.75;;;18.00;99.90;;;;;;7300496;32;20234;-57
2023/10/07 20:34:49;;;;;;;8.27;3.30;;;18.00;99.90;;;;;;7296329;32;20172;-56
2023/10/07 20:38:53;;;;;;;6.65;3.37;;;18.00;99.90;;;;;;7299781;32;20140;-56
2023/10/07 20:42:55;;;;;;;7.87;3.05;;;18.00;99.90;;;;;;7297843;32;20273;-56
2023/10/07 20:46:56;;;;;;;5.85;3.17;;;18.00;99.90;;;;;;7298091;32;20213;-57
2023/10/07 20:51:01;;;;;;;8.25;4.12;;;18.00;99.90;;;;;;7299301;32;20634;-55
2023/10/07 20:55:05;;;;;;;7.03;3.42;;;18.10;99.90;;;;;;7297671;32;20573;-55
2023/10/07 20:59:10;;;;;;;8.00;3.58;;;18.20;99.90;;;;;;7302346;32;20482;-56
2023/10/07 21:03:12;;;;;;;9.18;4.55;;;18.30;99.90;;;;;;7295903;32;20108;-56
2023/10/07 21:07:14;;;;;;;11.50;5.60;;;18.20;99.90;;;;;;7299489;32;20120;-56
2023/10/07 21:11:17;;;;;;;6.15;2.90;;;18.20;99.90;;;;;;7296362;32;20237;-56
2023/10/07 21:15:21;;;;;;;7.87;3.00;;;18.20;99.90;;;;;;7298343;32;20168;-55
2023/10/07 21:19:23;;;;;;;6.03;3.20;;;18.20;99.90;;;;;;7298396;32;20290;-55
2023/10/07 21:23:25;;;;;;;8.25;3.70;;;18.20;99.90;;;;;;7295512;32;20164;-55
2023/10/07 21:27:28;;;;;;;10.98;3.47;;;18.40;99.90;;;;;;7291428;32;20202;-57
2023/10/07 21:31:30;;;;;;;6.30;3.30;;;18.30;99.90;;;;;;7291570;32;20166;-57